Orbital elements of FENGYUN 1C DEB
| Launched | 9 May 1999 |
| Flight ended | – |
| Launch site | Taiyuan Space Center, PRC |
| Owner | People's Republic of China |
| NORAD ID | 30330 |
| Date fetched |
Epoch osculation |
Inc. [°] |
Ecc. | RA asc node [hr] |
Arg Peri. [°] |
Mean anom [°] |
Mean motion [rev/day] |
Abs. mag |
| Date fetched |
Epoch osculation |
Inc. [°] |
Ecc. | RA asc node [hr] |
Arg Peri. [°] |
Mean anom [°] |
Mean motion [rev/day] |
Abs. mag |
| 2026 May 05 17:57 | 2026 May 05 11:06:50 | 98.8977 | 0.01876 | 7.6549 | 157.1474 | 354.4956 | 13.82598 | – |
| 2026 May 04 17:57 | 2026 Apr 30 11:16:39 | 98.8976 | 0.01871 | 7.3401 | 170.6153 | 354.4956 | 13.82598 | – |
| 2026 May 03 17:57 | 2026 Apr 30 11:16:39 | 98.8976 | 0.01871 | 7.3401 | 170.6153 | 354.4956 | 13.82598 | – |
| 2026 May 02 17:57 | 2026 Apr 30 11:16:39 | 98.8976 | 0.01871 | 7.3401 | 170.6153 | 354.4956 | 13.82598 | – |
| 2026 May 01 17:56 | 2026 Apr 30 11:16:39 | 98.8976 | 0.01871 | 7.3401 | 170.6153 | 354.4956 | 13.82598 | – |
| 2026 Apr 30 17:56 | 2026 Apr 30 11:16:39 | 98.8976 | 0.01871 | 7.3401 | 170.6153 | 354.4956 | 13.82598 | – |
| 2026 Apr 29 17:57 | 2026 Apr 24 12:43:14 | 98.8976 | 0.01865 | 6.9658 | 186.6858 | 354.4956 | 13.82598 | – |
| 2026 Apr 28 17:56 | 2026 Apr 24 12:43:14 | 98.8976 | 0.01865 | 6.9658 | 186.6858 | 354.4956 | 13.82598 | – |
| 2026 Apr 27 17:58 | 2026 Apr 24 12:43:14 | 98.8976 | 0.01865 | 6.9658 | 186.6858 | 354.4956 | 13.82598 | – |
| 2026 Apr 26 17:58 | 2026 Apr 24 12:43:14 | 98.8976 | 0.01865 | 6.9658 | 186.6858 | 354.4956 | 13.82598 | – |
| 2026 Apr 25 17:58 | 2026 Apr 24 12:43:14 | 98.8976 | 0.01865 | 6.9658 | 186.6858 | 354.4956 | 13.82598 | – |
| 2026 Apr 24 17:59 | 2026 Apr 24 12:43:14 | 98.8976 | 0.01865 | 6.9658 | 186.6858 | 354.4956 | 13.82598 | – |
| 2026 Apr 23 17:57 | 2026 Apr 18 22:31:23 | 98.8974 | 0.01861 | 6.6133 | 201.8468 | 354.4956 | 13.82598 | – |
| 2026 Apr 22 17:57 | 2026 Apr 18 22:31:23 | 98.8974 | 0.01861 | 6.6133 | 201.8468 | 354.4956 | 13.82598 | – |
| 2026 Apr 21 17:57 | 2026 Apr 18 22:31:23 | 98.8974 | 0.01861 | 6.6133 | 201.8468 | 354.4956 | 13.82598 | – |
| 2026 Apr 20 17:57 | 2026 Apr 18 22:31:23 | 98.8974 | 0.01861 | 6.6133 | 201.8468 | 354.4956 | 13.82598 | – |
| 2026 Apr 19 17:58 | 2026 Apr 18 22:31:23 | 98.8974 | 0.01861 | 6.6133 | 201.8468 | 354.4956 | 13.82598 | – |
| 2026 Apr 18 17:56 | 2026 Apr 13 05:15:42 | 98.8975 | 0.01858 | 6.2529 | 217.3913 | 354.4956 | 13.82598 | – |
| 2026 Apr 16 17:57 | 2026 Apr 13 05:15:42 | 98.8975 | 0.01858 | 6.2529 | 217.3913 | 354.4956 | 13.82598 | – |
| 2026 Apr 14 17:57 | 2026 Apr 13 05:15:42 | 98.8975 | 0.01858 | 6.2529 | 217.3913 | 354.4956 | 13.82598 | – |
| 2026 Apr 13 17:57 | 2026 Apr 13 05:15:42 | 98.8975 | 0.01858 | 6.2529 | 217.3913 | 354.4956 | 13.82598 | – |
| 2026 Apr 12 17:57 | 2026 Apr 08 11:18:14 | 98.8974 | 0.01856 | 5.9536 | 230.3210 | 354.4956 | 13.82598 | – |
| 2026 Apr 11 17:57 | 2026 Apr 08 11:18:14 | 98.8974 | 0.01856 | 5.9536 | 230.3210 | 354.4956 | 13.82598 | – |
| 2026 Apr 10 17:58 | 2026 Apr 08 11:18:14 | 98.8974 | 0.01856 | 5.9536 | 230.3210 | 354.4956 | 13.82598 | – |
| 2026 Apr 09 18:01 | 2026 Apr 08 11:18:14 | 98.8974 | 0.01856 | 5.9536 | 230.3210 | 354.4956 | 13.82598 | – |
| 2026 Apr 08 17:57 | 2026 Apr 08 11:18:14 | 98.8974 | 0.01856 | 5.9536 | 230.3210 | 354.4956 | 13.82598 | – |